首页
METAR-TAF:

METAR-TAF

机场 :

大瀑布城, 蒙大拿州, 美国

纬度: 47-28-24N, 经度: 111-22-56W, 海拔: 1120米

当前天气观测

该预报发布于41分钟前的14:53 UTC
风速5节,风向东南
温度 19°C
湿度 26%
气压 1014 hPa
能見度: 16.1公里
天空无云

METAR: KGTF 241453Z 13005KT 10SM CLR 19/M01 A2993 RMK AO2 SLP102 T01941011 51005

时间: 09:34 (15:34 UTC)

预报

该预报发布于4小时和14分钟前的11:20 UTC
预报有效从24日的 12点(UTC)到 25日的 12点(UTC)
风速10节,风向西南
能見度: 10公里
散云层高于20000英尺
从 24日的 1800点(UTC)
风速18节,风向西,有时为27节阵风
能見度: 10公里
散云层高于20000英尺
从 25日的 0300点(UTC)
风速10节,风向西转西南
能見度: 10公里
少量云层高于25000英尺

TAF: KGTF 241120Z 2412/2512 23010KT P6SM SCT200 FM241800 27018G27KT P6SM SCT200 FM250300 24010KT P6SM FEW250

超过4000个机场的气象观测和天气预报(METAR&TAF报告)。

可查询的气象台以黄色和红色小点在地图上表示。

将鼠标移到小点上方,可查看气象台名称。

然后点击查看天气观测和预报。

如需切换地图:点击带黑十字的绿色按钮放大地图;点击带横线的绿色按钮缩小地图;或者点击绿色箭头查看邻近地区的地图。


METAR-TAF: